Terminal Aerodrome Forecast
Issued by NWS

Home | Current Version | Previous Version | Text Only | Print | Product List | Glossary On
Versions: 1 2 3 4 5 6 7 8 9 10 11 12
000
FTUS44 KEPZ 190520
TAFDMN
TAF
KDMN 190520Z 1906/2006 28006KT P6SM SCT250
     FM191900 25010KT P6SM FEW250
     FM200200 27006KT P6SM FEW250=

USA.gov is the U.S. government's official web portal to all federal, state and local government web resources and services.